»·PEaware :: N4657 KHHR-KCRQ

N4657 :: KHHR-KCRQ

FLIGHT INFORMATION

Flight Status: Arrived
Operator: Privately registered:
United States
More flights under this callsign
Pilot: Daniel P. (20187)
Aircraft: PILATUS PC-12 EAGLE
(PC12)
More flights by this aircraft type
Origin: KHHR Northrop/Hawthorne Mun
United States
Destination: KCRQ McClellan-Palomar
United States
More flights between these airports :: More routes between these airports
Route: +LIMBO V64 WILMA V25 PACIF V208 OCN
File this flight plan on PilotEdge
Remarks: SCTP 12
Altitude:
(Current/Filed)
90ft
Speed:
(Current/Filed)
200kts
Departed: 04-Oct-18 12:58 PM
Arrived: 04-Oct-18 01:31 PM
Distance/Time
Traveled:
71nm/0:33
Distance/Time
To Go:
Arrived

Flight Plot

Page will automatically refresh every two minutes.

Flight plan parsing failed; only flown route is shown


Map Options




Map Legend


Flown Route
Filed Route
Departure Airport
Arrival Airport
Navaid (VOR, NDB)
Fix

Horizontal Profiles

Position Reports

Time Latitude Longitude Heading Altitude Ground
Speed
04-Oct-18 12:07 33.922099 -118.336922 178 60ft 0kts
04-Oct-18 12:08 33.922099 -118.336922 178 60ft 0kts
04-Oct-18 12:09 33.922099 -118.336922 178 60ft 0kts
04-Oct-18 12:10 33.922099 -118.336922 178 60ft 0kts
04-Oct-18 12:11 33.922099 -118.336922 178 60ft 0kts
04-Oct-18 12:12 33.922099 -118.336922 178 60ft 0kts
04-Oct-18 12:13 33.922099 -118.336922 178 60ft 0kts
04-Oct-18 12:14 33.922099 -118.336922 178 60ft 0kts
04-Oct-18 12:15 33.922099 -118.336922 178 60ft 0kts
04-Oct-18 12:16 33.922099 -118.336922 178 60ft 0kts
04-Oct-18 12:17 33.922099 -118.336922 178 60ft 0kts
04-Oct-18 12:18 33.922099 -118.336922 178 60ft 0kts
04-Oct-18 12:19 33.922099 -118.336922 178 60ft 0kts
04-Oct-18 12:20 33.922099 -118.336922 178 60ft 0kts
04-Oct-18 12:21 33.922099 -118.336922 178 60ft 0kts
04-Oct-18 12:22 33.922099 -118.336922 178 60ft 0kts
04-Oct-18 12:23 33.922099 -118.336922 178 60ft 0kts
04-Oct-18 12:24 33.922099 -118.336922 178 60ft 0kts
04-Oct-18 12:25 33.922099 -118.336922 178 60ft 0kts
04-Oct-18 12:26 33.922099 -118.336922 178 60ft 0kts
04-Oct-18 12:27 33.922099 -118.336922 178 60ft 0kts
04-Oct-18 12:28 33.922099 -118.336922 178 60ft 0kts
04-Oct-18 12:29 33.922099 -118.336922 178 60ft 0kts
04-Oct-18 12:30 33.922099 -118.336922 178 60ft 0kts
04-Oct-18 12:31 33.922099 -118.336922 178 60ft 0kts
04-Oct-18 12:32 33.922099 -118.336922 178 60ft 0kts
04-Oct-18 12:33 33.922099 -118.336922 178 60ft 0kts
04-Oct-18 12:34 33.922099 -118.336922 178 60ft 0kts
04-Oct-18 12:35 33.922099 -118.336922 178 60ft 0kts
04-Oct-18 12:36 33.922099 -118.336922 178 60ft 0kts
04-Oct-18 12:37 33.922099 -118.336922 178 60ft 0kts
04-Oct-18 12:38 33.922099 -118.336922 178 60ft 0kts
04-Oct-18 12:39 33.922099 -118.336922 178 60ft 0kts
04-Oct-18 12:40 33.922099 -118.336922 178 60ft 0kts
04-Oct-18 12:41 33.922099 -118.336922 178 60ft 0kts
04-Oct-18 12:42 33.922099 -118.336922 178 60ft 0kts
04-Oct-18 12:43 33.922099 -118.336922 178 60ft 0kts
04-Oct-18 12:44 33.922099 -118.336922 178 60ft 0kts
04-Oct-18 12:45 33.922099 -118.336922 178 60ft 0kts
04-Oct-18 12:46 33.922099 -118.336922 178 60ft 0kts
04-Oct-18 12:47 33.922099 -118.336922 178 60ft 0kts
04-Oct-18 12:48 33.922099 -118.336922 178 60ft 0kts
04-Oct-18 12:49 33.922099 -118.336922 178 60ft 0kts
04-Oct-18 12:50 33.922099 -118.336922 178 60ft 0kts
04-Oct-18 12:51 33.922099 -118.336922 178 60ft 0kts
04-Oct-18 12:52 33.922099 -118.336922 178 60ft 0kts
04-Oct-18 12:53 33.922099 -118.336922 178 60ft 0kts
04-Oct-18 12:54 33.922099 -118.336922 178 60ft 0kts
04-Oct-18 12:55 33.922007 -118.336833 100 60ft 5kts
04-Oct-18 12:56 33.922474 -118.334160 87 59ft 11kts
04-Oct-18 12:57 33.922666 -118.330259 87 57ft 12kts
04-Oct-18 12:58 33.922831 -118.327243 47 56ft 5kts
04-Oct-18 12:59 33.922871 -118.327212 19 56ft 0kts
04-Oct-18 13:00 33.923086 -118.330131 265 57ft 72kts
04-Oct-18 13:01 33.910592 -118.358896 220 1953ft 122kts
04-Oct-18 13:02 33.880945 -118.388168 220 3808ft 168kts
04-Oct-18 13:03 33.845074 -118.372357 141 5241ft 197kts
04-Oct-18 13:04 33.804360 -118.329554 141 6985ft 204kts
04-Oct-18 13:05 33.761957 -118.284895 141 8753ft 208kts
04-Oct-18 13:06 33.714507 -118.235362 141 8993ft 236kts
04-Oct-18 13:07 33.665317 -118.184188 141 8986ft 239kts
04-Oct-18 13:08 33.615364 -118.132195 141 8980ft 239kts
04-Oct-18 13:09 33.566975 -118.079976 136 8975ft 239kts
04-Oct-18 13:10 33.520817 -118.024732 137 8979ft 239kts
04-Oct-18 13:11 33.475017 -117.970516 137 8960ft 238kts
04-Oct-18 13:12 33.429865 -117.917206 137 8608ft 222kts
04-Oct-18 13:13 33.385707 -117.865197 137 7653ft 223kts
04-Oct-18 13:14 33.341825 -117.813514 137 6658ft 222kts
04-Oct-18 13:15 33.298632 -117.762865 137 5660ft 212kts
04-Oct-18 13:16 33.267190 -117.704802 120 4997ft 217kts
04-Oct-18 13:17 33.239878 -117.645735 120 4992ft 227kts
04-Oct-18 13:18 33.210073 -117.581373 120 4987ft 203kts
04-Oct-18 13:19 33.189051 -117.525118 99 4993ft 181kts
04-Oct-18 13:20 33.199082 -117.472485 48 4995ft 178kts
04-Oct-18 13:21 33.231866 -117.429737 48 5000ft 181kts
04-Oct-18 13:22 33.237963 -117.377464 96 5001ft 179kts
04-Oct-18 13:23 33.234384 -117.324781 97 5000ft 180kts
04-Oct-18 13:24 33.230742 -117.271742 95 4975ft 180kts
04-Oct-18 13:25 33.231199 -117.216021 91 4397ft 173kts
04-Oct-18 13:26 33.231431 -117.161592 99 3982ft 168kts
04-Oct-18 13:27 33.207575 -117.122990 157 3442ft 158kts
04-Oct-18 13:28 33.169065 -117.124259 209 3082ft 153kts
04-Oct-18 13:29 33.147059 -117.162296 258 2329ft 128kts
04-Oct-18 13:30 33.140855 -117.201699 257 1625ft 123kts
04-Oct-18 13:31 33.135459 -117.235388 256 1028ft 91kts
04-Oct-18 13:32 33.130858 -117.263533 257 514ft 87kts
04-Oct-18 13:33 33.127476 -117.284712 258 312ft 38kts
04-Oct-18 13:34 33.126325 -117.287228 95 300ft 4kts
04-Oct-18 13:35 33.126724 -117.284415 80 312ft 16kts
04-Oct-18 13:36 33.127598 -117.278994 80 309ft 15kts
04-Oct-18 13:37 33.127305 -117.276293 82 308ft 9kts
04-Oct-18 13:38 33.127316 -117.275615 49 307ft 0kts
04-Oct-18 13:39 33.127316 -117.275615 49 307ft 0kts
04-Oct-18 13:40 33.127316 -117.275615 49 307ft 0kts
04-Oct-18 13:41 33.127316 -117.275615 49 307ft 0kts

Navigation Log

Ident Type
Flight plan parsing failed, navigation log unavailable